Time;durP1;ratioP1;P1;durP2;ratioP2;P2;SDS_P1;SDS_P2;PMS_P1;PMS_P2;Temp;Humidity;BMP_temperature;BMP_pressure;BME280_temperature;BME280_humidity;BME280_pressure;Samples;Min_cycle;Max_cycle;Signal;HPM_P1;HPM_P2
2022/07/24 16:53:57;;;;;;;;;;;;;;;24.27;100.00;100688.88;3069515;19;1986;-49
2022/07/24 16:55:03;;;;;;;;;;;;;;;24.20;100.00;100685.09;3069905;19;1055;-49
2022/07/24 16:56:08;;;;;;;;;;;;;;;24.13;100.00;100689.59;3070892;19;1639;-49
2022/07/24 16:57:09;;;;;;;;;;;;;;;24.13;100.00;100687.72;3069793;19;2243;-49
2022/07/24 16:58:14;;;;;;;;;;;;;;;24.08;100.00;100691.97;3069665;19;1770;-48
2022/07/24 16:59:16;;;;;;;;;;;;;;;24.06;100.00;100694.88;3070335;19;958;-49
2022/07/24 17:00:24;;;;;;;;;;;;;;;23.99;100.00;100693.91;3071498;19;1808;-49
2022/07/24 17:01:26;;;;;;;;;;;;;;;24.08;100.00;100687.38;3068651;19;1690;-49
2022/07/24 17:02:30;;;;;;;;;;;;;;;23.95;100.00;100703.44;3066789;19;1820;-49
2022/07/24 17:03:33;;;;;;;;;;;;;;;23.99;100.00;100693.91;3070316;19;1669;-49
2022/07/24 17:04:37;;;;;;;;;;;;;;;24.03;100.00;100697.94;3071451;19;976;-49
2022/07/24 17:05:39;;;;;;;;;;;;;;;24.09;100.00;100688.22;3069675;19;1886;-49
2022/07/24 17:06:44;;;;;;;;;;;;;;;24.22;100.00;100688.50;3070527;19;874;-50
2022/07/24 17:07:51;;;;;;;;;;;;;;;24.49;100.00;100692.66;3070893;19;2471;-49
2022/07/24 17:08:53;;;;;;;;;;;;;;;24.73;100.00;100687.91;3070338;19;2238;-48
2022/07/24 17:09:57;;;;;;;;;;;;;;;24.96;100.00;100701.59;3069766;19;976;-49
2022/07/24 17:11:02;;;;;;;;;;;;;;;25.26;100.00;100696.19;3071122;19;1672;-49
2022/07/24 17:12:05;;;;;;;;;;;;;;;25.53;100.00;100700.22;3069587;19;1671;-49
2022/07/24 17:13:10;;;;;;;;;;;;;;;25.72;100.00;100716.94;3069951;19;1860;-50
2022/07/24 17:14:14;;;;;;;;;;;;;;;25.86;100.00;100696.13;3069225;19;1372;-49
2022/07/24 17:15:16;;;;;;;;;;;;;;;25.97;100.00;100714.78;3070171;19;1180;-49
2022/07/24 17:16:21;;;;;;;;;;;;;;;26.01;100.00;100699.72;3070677;19;1843;-49
2022/07/24 17:17:57;;;;;;;;;;;;;;;26.07;100.00;100715.38;3070391;19;1651;-50
2022/07/24 17:18:50;;;;;;;;;;;;;;;25.94;100.00;100715.19;3069080;19;2193;-49
2022/07/24 17:19:52;;;;;;;;;;;;;;;25.61;100.00;100713.81;3068485;19;929;-48
2022/07/24 17:20:57;;;;;;;;;;;;;;;25.40;100.00;100712.63;3070552;19;1597;-50
2022/07/24 17:22:03;;;;;;;;;;;;;;;25.24;100.00;100712.78;3069357;19;1028;-48
2022/07/24 17:23:09;;;;;;;;;;;;;;;25.01;100.00;100711.94;3069753;19;2368;-49
2022/07/24 17:24:15;;;;;;;;;;;;;;;24.93;100.00;100712.03;3069163;19;1184;-49
2022/07/24 17:25:18;;;;;;;;;;;;;;;24.97;100.00;100710.63;3070916;19;2305;-48
2022/07/24 17:26:30;;;;;;;;;;;;;;;24.95;100.00;100707.22;3069798;19;1738;-49
2022/07/24 17:27:32;;;;;;;;;;;;;;;24.98;100.00;100707.72;3070700;19;1183;-49
2022/07/24 17:28:37;;;;;;;;;;;;;;;24.95;100.00;100699.03;3070040;19;1894;-49
2022/07/24 17:29:41;;;;;;;;;;;;;;;24.88;100.00;100700.75;3069873;19;1758;-49
2022/07/24 17:30:43;;;;;;;;;;;;;;;24.80;100.00;100698.94;3070464;19;1070;-49
2022/07/24 17:31:48;;;;;;;;;;;;;;;24.71;100.00;100700.88;3068998;19;1591;-49
2022/07/24 17:32:50;;;;;;;;;;;;;;;24.66;100.00;100700.56;3068948;19;975;-48
2022/07/24 17:33:55;;;;;;;;;;;;;;;24.67;100.00;100699.53;3070025;19;1942;-49
2022/07/24 17:35:00;;;;;;;;;;;;;;;24.76;100.00;100695.72;3068757;19;1539;-49
2022/07/24 17:36:04;;;;;;;;;;;;;;;24.86;100.00;100687.31;3068949;19;905;-50
2022/07/24 17:37:06;;;;;;;;;;;;;;;25.02;100.00;100691.81;3066418;19;2556;-49
2022/07/24 17:38:27;;;;;;;;;;;;;;;25.20;100.00;100694.22;3069058;19;1293;-49
2022/07/24 17:39:29;;;;;;;;;;;;;;;25.31;100.00;100705.56;3070354;19;2282;-50
2022/07/24 17:40:33;;;;;;;;;;;;;;;25.46;100.00;100695.53;3068908;19;1717;-49
2022/07/24 17:41:35;;;;;;;;;;;;;;;25.33;100.00;100687.09;3071190;19;1181;-49
2022/07/24 17:42:40;;;;;;;;;;;;;;;25.37;100.00;100693.88;3069440;19;1993;-49
2022/07/24 17:43:41;;;;;;;;;;;;;;;25.39;100.00;100697.28;3070204;19;915;-49
2022/07/24 17:44:52;;;;;;;;;;;;;;;25.46;100.00;100697.41;3070250;19;1101;-49
2022/07/24 17:45:56;;;;;;;;;;;;;;;25.49;100.00;100694.28;3069701;19;1997;-49
2022/07/24 17:47:01;;;;;;;;;;;;;;;25.51;100.00;100694.94;3070119;19;966;-49
2022/07/24 17:48:06;;;;;;;;;;;;;;;25.53;100.00;100700.22;3070611;19;2267;-48
2022/07/24 17:49:08;;;;;;;;;;;;;;;25.54;100.00;100699.19;3069304;19;1626;-49
2022/07/24 17:50:13;;;;;;;;;;;;;;;25.59;100.00;100696.75;3069965;19;1610;-48
2022/07/24 17:51:15;;;;;;;;;;;;;;;25.61;100.00;100698.28;3070185;19;1156;-49
2022/07/24 17:52:19;;;;;;;;;;;;;;;25.65;100.00;100704.22;3070892;19;1579;-48
2022/07/24 17:53:21;;;;;;;;;;;;;;;25.67;100.00;100693.97;3067037;19;2301;-49
2022/07/24 17:54:26;;;;;;;;;;;;;;;25.69;100.00;100700.09;3068671;19;1850;-49
2022/07/24 17:55:28;;;;;;;;;;;;;;;25.72;100.00;100705.19;3070255;19;1030;-49
2022/07/24 17:56:32;;;;;;;;;;;;;;;25.67;100.00;100702.16;3070001;19;2210;-49
2022/07/24 17:57:34;;;;;;;;;;;;;;;25.59;100.00;100699.50;3068440;19;1807;-49
2022/07/24 17:58:39;;;;;;;;;;;;;;;25.52;100.00;100709.44;3069181;19;885;-49
2022/07/24 17:59:43;;;;;;;;;;;;;;;25.46;100.00;100706.44;3070443;19;1782;-49
2022/07/24 18:00:45;;;;;;;;;;;;;;;25.41;100.00;100705.28;3069997;19;904;-49
2022/07/24 18:01:52;;;;;;;;;;;;;;;25.33;100.00;100698.03;3069853;19;1788;-49
2022/07/24 18:02:54;;;;;;;;;;;;;;;25.28;100.00;100703.19;3070778;19;1801;-48
2022/07/24 18:03:59;;;;;;;;;;;;;;;25.23;100.00;100697.44;3069280;19;1026;-49
2022/07/24 18:05:01;;;;;;;;;;;;;;;25.10;100.00;100695.34;3061086;19;1839;-49
2022/07/24 18:06:07;;;;;;;;;;;;;;;25.01;100.00;100688.22;3058308;19;1679;-49
2022/07/24 18:07:11;;;;;;;;;;;;;;;24.85;100.00;100695.69;3057620;19;988;-49
2022/07/24 18:08:22;;;;;;;;;;;;;;;24.62;100.00;100684.75;3057939;19;1184;-48
2022/07/24 18:09:26;;;;;;;;;;;;;;;24.42;100.00;100685.19;3058634;19;1590;-48
2022/07/24 18:10:30;;;;;;;;;;;;;;;24.19;100.00;100688.88;3057500;19;888;-49
2022/07/24 18:11:35;;;;;;;;;;;;;;;23.97;100.00;100696.81;3057806;19;1959;-50
2022/07/24 18:12:37;;;;;;;;;;;;;;;23.75;100.00;100688.53;3058561;19;1539;-49
2022/07/24 18:13:41;;;;;;;;;;;;;;;23.52;100.00;100682.97;3058638;19;897;-49
2022/07/24 18:14:43;;;;;;;;;;;;;;;23.31;100.00;100683.47;3056302;19;1899;-49
2022/07/24 18:15:48;;;;;;;;;;;;;;;23.14;100.00;100682.63;3057055;19;1166;-48
2022/07/24 18:16:50;;;;;;;;;;;;;;;22.96;100.00;100681.94;3057415;19;1735;-49
2022/07/24 18:17:54;;;;;;;;;;;;;;;23.08;100.00;100677.84;3056121;19;1768;-49
2022/07/24 18:18:56;;;;;;;;;;;;;;;22.96;100.00;100679.22;3057852;19;1059;-50
2022/07/24 18:20:01;;;;;;;;;;;;;;;22.84;100.00;100669.69;3057262;19;1806;-49
2022/07/24 18:21:06;;;;;;;;;;;;;;;22.73;100.00;100673.56;3057075;19;1571;-51
2022/07/24 18:22:12;;;;;;;;;;;;;;;22.59;100.00;100664.19;3057124;19;893;-48
2022/07/24 18:23:18;;;;;;;;;;;;;;;22.46;100.00;100661.09;3058289;19;1216;-49
2022/07/24 18:24:23;;;;;;;;;;;;;;;22.36;100.00;100659.56;3057349;19;1566;-49
2022/07/24 18:25:25;;;;;;;;;;;;;;;22.24;100.00;100662.59;3057719;19;1031;-49
2022/07/24 18:26:30;;;;;;;;;;;;;;;22.15;100.00;100651.84;3057235;19;2148;-52
2022/07/24 18:27:32;;;;;;;;;;;;;;;22.03;100.00;100655.91;3058091;19;1415;-53
2022/07/24 18:28:37;;;;;;;;;;;;;;;21.92;100.00;100652.44;3056607;19;1756;-53
2022/07/24 18:29:39;;;;;;;;;;;;;;;21.82;100.00;100646.28;3056691;19;1930;-53
2022/07/24 18:30:43;;;;;;;;;;;;;;;21.71;100.00;100654.72;3057894;19;1282;-49
2022/07/24 18:31:45;;;;;;;;;;;;;;;21.62;100.00;100650.22;3056951;19;1879;-52
2022/07/24 18:32:50;;;;;;;;;;;;;;;21.54;100.00;100642.91;3055835;19;1475;-51
2022/07/24 18:33:51;;;;;;;;;;;;;;;21.46;100.00;100644.72;3058484;19;1461;-51
2022/07/24 18:34:57;;;;;;;;;;;;;;;21.37;100.00;100653.84;3056917;19;1858;-53
2022/07/24 18:36:01;;;;;;;;;;;;;;;21.28;100.00;100643.91;3057235;19;1070;-53
2022/07/24 18:37:04;;;;;;;;;;;;;;;21.18;100.00;100641.28;3057372;19;1849;-53
2022/07/24 18:38:12;;;;;;;;;;;;;;;21.11;100.00;100640.22;3058026;19;1685;-50
2022/07/24 18:39:15;;;;;;;;;;;;;;;21.04;100.00;100642.72;3056855;19;1000;-53
2022/07/24 18:40:20;;;;;;;;;;;;;;;20.98;100.00;100650.63;3057672;19;2209;-50
2022/07/24 18:41:22;;;;;;;;;;;;;;;20.85;100.00;100640.19;3058070;19;889;-58
2022/07/24 18:42:26;;;;;;;;;;;;;;;20.83;100.00;100636.78;3058321;19;881;-51
2022/07/24 18:43:28;;;;;;;;;;;;;;;20.75;100.00;100640.28;3056983;19;1103;-49
2022/07/24 18:44:32;;;;;;;;;;;;;;;20.69;100.00;100632.75;3057811;19;983;-52
2022/07/24 18:45:34;;;;;;;;;;;;;;;20.63;100.00;100640.69;3056087;19;1700;-49
2022/07/24 18:46:40;;;;;;;;;;;;;;;20.55;100.00;100627.03;3057289;19;1635;-49
2022/07/24 18:47:44;;;;;;;;;;;;;;;20.49;100.00;100632.06;3058071;19;2247;-53
2022/07/24 18:48:47;;;;;;;;;;;;;;;20.44;100.00;100623.53;3056799;19;1774;-53
2022/07/24 18:49:51;;;;;;;;;;;;;;;20.39;100.00;100627.75;3055429;19;1663;-51
2022/07/24 18:50:53;;;;;;;;;;;;;;;20.32;100.00;100627.44;3057762;19;2260;-52
2022/07/24 18:51:58;;;;;;;;;;;;;;;20.26;100.00;100617.25;3056735;19;1689;-49
2022/07/24 18:53:00;;;;;;;;;;;;;;;20.20;100.00;100617.84;3057261;19;1234;-49
2022/07/24 18:54:05;;;;;;;;;;;;;;;20.14;100.00;100616.59;3056762;19;1886;-51
2022/07/24 18:55:08;;;;;;;;;;;;;;;20.08;100.00;100619.91;3057056;19;1854;-51
2022/07/24 18:57:18;;;;;;;;;;;;;;;19.98;100.00;100623.69;2919596;19;2922928;-50
2022/07/24 18:58:20;;;;;;;;;;;;;;;19.94;100.00;100616.84;3070661;19;1133;-49
2022/07/24 18:59:24;;;;;;;;;;;;;;;19.90;100.00;100615.47;3070984;19;1772;-50
2022/07/24 19:00:29;;;;;;;;;;;;;;;19.85;100.00;100618.63;3071474;19;1793;-51
2022/07/24 19:01:32;;;;;;;;;;;;;;;19.81;100.00;100611.78;3070745;19;905;-52
2022/07/24 19:02:37;;;;;;;;;;;;;;;19.78;100.00;100610.25;3071189;19;1686;-51
2022/07/24 19:03:39;;;;;;;;;;;;;;;19.44;100.00;100609.13;3071478;19;1213;-51
2022/07/24 19:04:43;;;;;;;;;;;;;;;19.33;100.00;100602.00;3071365;19;2265;-50
2022/07/24 19:05:45;;;;;;;;;;;;;;;19.16;100.00;100583.00;3069744;19;1271;-50
2022/07/24 19:06:50;;;;;;;;;;;;;;;19.23;100.00;100594.91;3071006;19;1190;-53
2022/07/24 19:07:55;;;;;;;;;;;;;;;19.18;100.00;100589.13;3070511;19;1383;-52
2022/07/24 19:08:56;;;;;;;;;;;;;;;19.40;100.00;100580.63;3070713;19;897;-52
2022/07/24 19:10:01;;;;;;;;;;;;;;;19.49;100.00;100590.59;3070978;19;2324;-49
2022/07/24 19:11:03;;;;;;;;;;;;;;;19.41;100.00;100598.56;3071562;19;1719;-52
2022/07/24 19:12:08;;;;;;;;;;;;;;;19.25;100.00;100598.34;3070046;19;1717;-52
2022/07/24 19:13:09;;;;;;;;;;;;;;;19.11;100.00;100596.09;3070502;19;1733;-51
2022/07/24 19:14:14;;;;;;;;;;;;;;;19.29;100.00;100594.34;3070162;19;1558;-52
2022/07/24 19:15:16;;;;;;;;;;;;;;;19.16;100.00;100588.41;3070640;19;1209;-52
2022/07/24 19:16:20;;;;;;;;;;;;;;;19.22;100.00;100594.06;3069916;19;1645;-50
2022/07/24 19:17:26;;;;;;;;;;;;;;;19.16;100.00;100589.25;3069910;19;1850;-50
2022/07/24 19:18:28;;;;;;;;;;;;;;;19.13;100.00;100592.25;3070386;19;1286;-51
2022/07/24 19:19:33;;;;;;;;;;;;;;;19.11;100.00;100585.28;3069407;19;1612;-48
2022/07/24 19:20:37;;;;;;;;;;;;;;;19.05;100.00;100587.59;3069813;19;2077;-51
2022/07/24 19:21:39;;;;;;;;;;;;;;;19.01;100.00;100580.75;3069624;19;1265;-50
2022/07/24 19:22:43;;;;;;;;;;;;;;;18.99;100.00;100582.75;3068901;19;1808;-51
2022/07/24 19:23:48;;;;;;;;;;;;;;;18.96;100.00;100587.59;3070798;19;1743;-51
2022/07/24 19:24:49;;;;;;;;;;;;;;;18.95;100.00;100585.91;3068613;19;1896;-51
2022/07/24 19:26:09;;;;;;;;;;;;;;;18.91;100.00;100579.94;3069654;19;1846;-49
2022/07/24 19:27:11;;;;;;;;;;;;;;;18.88;100.00;100573.94;3070635;19;1298;-50
2022/07/24 19:28:16;;;;;;;;;;;;;;;18.85;100.00;100577.78;3069946;19;941;-52
2022/07/24 19:29:20;;;;;;;;;;;;;;;18.81;100.00;100579.09;3069588;19;1820;-50
2022/07/24 19:30:25;;;;;;;;;;;;;;;18.79;100.00;100583.78;3070757;19;1054;-50
2022/07/24 19:31:28;;;;;;;;;;;;;;;18.78;100.00;100584.78;3070535;19;1625;-51
2022/07/24 19:32:34;;;;;;;;;;;;;;;18.75;100.00;100585.06;3070145;19;1657;-52
2022/07/24 19:33:36;;;;;;;;;;;;;;;18.72;100.00;100582.66;3069987;19;1142;-49
2022/07/24 19:34:41;;;;;;;;;;;;;;;18.68;100.00;100578.53;3070746;19;1606;-52
2022/07/24 19:35:46;;;;;;;;;;;;;;;18.65;100.00;100584.22;3070585;19;1159;-53
2022/07/24 19:36:48;;;;;;;;;;;;;;;18.62;100.00;100573.69;3070936;19;2262;-53
2022/07/24 19:37:52;;;;;;;;;;;;;;;18.61;100.00;100580.09;3069748;19;1751;-50
2022/07/24 19:38:54;;;;;;;;;;;;;;;18.61;100.00;100580.09;3071218;19;1164;-51
2022/07/24 19:39:59;;;;;;;;;;;;;;;18.60;100.00;100586.50;3070136;19;2117;-53
2022/07/24 19:41:03;;;;;;;;;;;;;;;18.56;100.00;100585.06;3070907;19;940;-50
2022/07/24 19:42:06;;;;;;;;;;;;;;;18.53;100.00;100583.50;3070593;19;948;-51
2022/07/24 19:43:10;;;;;;;;;;;;;;;18.54;100.00;100578.94;3070973;19;1489;-51
2022/07/24 19:44:21;;;;;;;;;;;;;;;18.45;100.00;100574.41;3069481;19;1717;-49
2022/07/24 19:45:26;;;;;;;;;;;;;;;18.48;100.00;100579.50;3070209;19;1648;-51
2022/07/24 19:46:31;;;;;;;;;;;;;;;18.31;100.00;100579.25;3070536;19;1815;-52
2022/07/24 19:47:35;;;;;;;;;;;;;;;18.41;100.00;100578.38;3070263;19;1923;-50
2022/07/24 19:48:40;;;;;;;;;;;;;;;18.34;100.00;100580.81;3070533;19;1886;-52
2022/07/24 19:49:45;;;;;;;;;;;;;;;18.30;100.00;100573.97;3070036;19;1667;-50
2022/07/24 19:50:47;;;;;;;;;;;;;;;18.21;100.00;100561.31;3070565;19;1864;-52
2022/07/24 19:52:11;;;;;;;;;;;;;;;18.25;100.00;100571.69;3070425;19;1301;-51
2022/07/24 19:53:13;;;;;;;;;;;;;;;18.27;100.00;100576.94;3070427;19;1162;-51
2022/07/24 19:54:20;;;;;;;;;;;;;;;18.24;100.00;100569.97;3069828;19;1800;-52
2022/07/24 19:55:28;;;;;;;;;;;;;;;18.24;100.00;100569.13;3070934;19;1188;-52
2022/07/24 19:56:30;;;;;;;;;;;;;;;18.23;100.00;100568.28;3069418;19;1620;-52
2022/07/24 19:57:35;;;;;;;;;;;;;;;18.23;100.00;100573.66;3069940;19;1849;-51
2022/07/24 19:58:37;;;;;;;;;;;;;;;18.21;100.00;100567.59;3070009;19;1338;-50
2022/07/24 19:59:41;;;;;;;;;;;;;;;18.22;100.00;100574.69;3070714;19;1829;-51
2022/07/24 20:00:46;;;;;;;;;;;;;;;18.21;100.00;100575.69;3069804;19;1287;-51
2022/07/24 20:01:50;;;;;;;;;;;;;;;18.20;100.00;100584.78;3069838;19;1473;-52
2022/07/24 20:02:52;;;;;;;;;;;;;;;18.20;100.00;100579.38;3069947;19;867;-51
2022/07/24 20:03:57;;;;;;;;;;;;;;;18.20;100.00;100573.13;3069989;19;1759;-49
2022/07/24 20:05:01;;;;;;;;;;;;;;;18.16;100.00;100572.53;3070454;19;920;-49
2022/07/24 20:06:06;;;;;;;;;;;;;;;18.16;100.00;100569.84;3070064;19;968;-48
2022/07/24 20:07:08;;;;;;;;;;;;;;;18.13;100.00;100572.81;3068776;19;1670;-48
2022/07/24 20:08:12;;;;;;;;;;;;;;;18.12;100.00;100564.84;3062923;19;956;-49
2022/07/24 20:09:17;;;;;;;;;;;;;;;18.02;100.00;100575.66;3055751;19;976;-49
2022/07/24 20:10:19;;;;;;;;;;;;;;;18.01;100.00;100563.13;3055714;19;978;-51
2022/07/24 20:11:24;;;;;;;;;;;;;;;18.01;100.00;100565.84;3057660;19;996;-48
2022/07/24 20:12:26;;;;;;;;;;;;;;;18.00;100.00;100556.03;3057800;19;1570;-49
2022/07/24 20:13:31;;;;;;;;;;;;;;;17.98;100.00;100558.03;3057894;19;962;-50
2022/07/24 20:14:33;;;;;;;;;;;;;;;17.96;100.00;100562.72;3058810;19;1985;-49
2022/07/24 20:15:38;;;;;;;;;;;;;;;17.92;100.00;100563.97;3057356;19;1556;-48
2022/07/24 20:16:44;;;;;;;;;;;;;;;17.89;100.00;100558.84;3057859;19;940;-48
2022/07/24 20:17:46;;;;;;;;;;;;;;;17.86;100.00;100557.31;3057520;19;1846;-49
2022/07/24 20:18:51;;;;;;;;;;;;;;;17.86;100.00;100564.56;3057697;19;850;-48
2022/07/24 20:19:53;;;;;;;;;;;;;;;17.83;100.00;100559.44;3058401;19;964;-48
2022/07/24 20:20:57;;;;;;;;;;;;;;;17.80;100.00;100557.00;3057919;19;1771;-48
2022/07/24 20:22:04;;;;;;;;;;;;;;;17.79;100.00;100558.00;3058390;19;920;-49
2022/07/24 20:23:06;;;;;;;;;;;;;;;17.79;100.00;100558.00;3057976;19;872;-49
2022/07/24 20:24:11;;;;;;;;;;;;;;;17.77;100.00;100554.56;3058281;19;1052;-48
2022/07/24 20:25:14;;;;;;;;;;;;;;;17.76;100.00;100555.56;3057560;19;1023;-48
2022/07/24 20:26:18;;;;;;;;;;;;;;;17.74;100.00;100550.31;3058655;19;904;-49
2022/07/24 20:27:22;;;;;;;;;;;;;;;17.62;100.00;100551.41;3058226;19;905;-48
2022/07/24 20:28:25;;;;;;;;;;;;;;;17.67;100.00;100553.69;3058507;19;1813;-48
2022/07/24 20:29:29;;;;;;;;;;;;;;;17.50;100.00;100550.66;3059469;19;1270;-48
2022/07/24 20:30:31;;;;;;;;;;;;;;;17.45;100.00;100555.59;3059116;19;1464;-48
2022/07/24 20:31:35;;;;;;;;;;;;;;;17.50;100.00;100542.56;3059013;19;1704;-48
2022/07/24 20:32:40;;;;;;;;;;;;;;;17.51;100.00;100548.81;3059643;19;1289;-48
2022/07/24 20:33:49;;;;;;;;;;;;;;;17.50;100.00;100545.25;3059082;19;1298;-48
2022/07/24 20:34:53;;;;;;;;;;;;;;;17.49;100.00;100551.66;3059062;19;1798;-49
2022/07/24 20:35:57;;;;;;;;;;;;;;;17.49;100.00;100546.25;3059065;19;1397;-48
2022/07/24 20:37:02;;;;;;;;;;;;;;;17.49;100.00;100550.78;3059253;19;1426;-49
2022/07/24 20:38:04;;;;;;;;;;;;;;;17.49;100.00;100554.34;3059236;19;1853;-50
2022/07/24 20:39:09;;;;;;;;;;;;;;;17.35;100.00;100553.84;3059353;19;1676;-47
2022/07/24 20:40:13;;;;;;;;;;;;;;;17.30;100.00;100546.16;3058680;19;1439;-49
2022/07/24 20:41:18;;;;;;;;;;;;;;;17.38;100.00;100540.97;3059227;19;1279;-49
2022/07/24 20:42:19;;;;;;;;;;;;;;;17.41;100.00;100537.09;3058999;19;1411;-49
2022/07/24 20:43:24;;;;;;;;;;;;;;;17.40;100.00;100541.66;3059409;19;1721;-48
2022/07/24 20:44:26;;;;;;;;;;;;;;;17.41;100.00;100540.66;3059204;19;1812;-48
2022/07/24 20:45:30;;;;;;;;;;;;;;;17.41;100.00;100540.66;3059537;19;1799;-49
2022/07/24 20:46:32;;;;;;;;;;;;;;;17.40;100.00;100536.25;3058587;19;1377;-48
2022/07/24 20:47:37;;;;;;;;;;;;;;;17.41;100.00;100537.09;3057724;19;1587;-49
2022/07/24 20:48:39;;;;;;;;;;;;;;;17.42;100.00;100550.47;3058782;19;1242;-48
2022/07/24 20:49:43;;;;;;;;;;;;;;;17.43;100.00;100541.38;3059040;19;1252;-49
2022/07/24 20:50:45;;;;;;;;;;;;;;;17.43;100.00;100546.78;3058982;19;1417;-49
2022/07/24 20:51:50;;;;;;;;;;;;;;;17.45;100.00;100552.91;3059759;19;1801;-48
2022/07/24 20:52:52;;;;;;;;;;;;;;;17.45;100.00;100550.19;3058918;19;1312;-49
2022/07/24 20:53:56;;;;;;;;;;;;;;;17.44;100.00;100548.50;3058832;19;1233;-49
2022/07/24 20:55:01;;;;;;;;;;;;;;;17.45;100.00;100544.81;3058864;19;1234;-48
2022/07/24 20:56:06;;;;;;;;;;;;;;;17.46;100.00;100545.66;3058497;19;1483;-48
2022/07/24 20:57:11;;;;;;;;;;;;;;;17.44;100.00;100545.78;3058043;19;1468;-48
2022/07/24 20:58:13;;;;;;;;;;;;;;;17.44;100.00;100548.50;3059163;19;1860;-49
2022/07/24 20:59:18;;;;;;;;;;;;;;;17.42;100.00;100553.16;3057768;19;983;-49
2022/07/24 21:00:22;;;;;;;;;;;;;;;17.42;100.00;100550.47;3057586;19;963;-49
2022/07/24 21:01:27;;;;;;;;;;;;;;;17.39;100.00;100545.34;3057922;19;951;-50
2022/07/24 21:02:29;;;;;;;;;;;;;;;17.39;100.00;100550.72;3057244;19;1055;-49
2022/07/24 21:03:33;;;;;;;;;;;;;;;17.38;100.00;100551.75;3057671;19;1761;-48
2022/07/24 21:04:38;;;;;;;;;;;;;;;17.37;100.00;100546.50;3057592;19;908;-50
2022/07/24 21:05:43;;;;;;;;;;;;;;;17.20;100.00;100547.97;3057710;19;813;-48
2022/07/24 21:06:44;;;;;;;;;;;;;;;17.25;100.00;100548.44;3057611;19;1232;-48
2022/07/24 21:07:49;;;;;;;;;;;;;;;17.29;100.00;100549.84;3057516;19;875;-49
2022/07/24 21:08:51;;;;;;;;;;;;;;;17.28;100.00;100546.28;3057620;19;935;-49
2022/07/24 21:09:59;;;;;;;;;;;;;;;17.26;100.00;100544.75;3057872;19;860;-48
2022/07/24 21:11:01;;;;;;;;;;;;;;;17.24;100.00;100552.13;3057542;19;1709;-49
2022/07/24 21:12:05;;;;;;;;;;;;;;;17.23;100.00;100545.88;3057777;19;890;-49
2022/07/24 21:13:07;;;;;;;;;;;;;;;17.21;100.00;100549.69;3057389;19;1741;-48
2022/07/24 21:14:12;;;;;;;;;;;;;;;17.19;100.00;100538.16;3057698;19;921;-49
2022/07/24 21:15:14;;;;;;;;;;;;;;;17.20;100.00;100550.66;3057551;19;932;-49
2022/07/24 21:16:20;;;;;;;;;;;;;;;17.18;100.00;100547.25;3057404;19;1011;-49
2022/07/24 21:17:24;;;;;;;;;;;;;;;17.17;100.00;100540.13;3057413;19;1123;-48
2022/07/24 21:18:26;;;;;;;;;;;;;;;17.13;100.00;100539.59;3058644;19;1849;-49
2022/07/24 21:19:30;;;;;;;;;;;;;;;17.11;100.00;100540.69;3056743;19;976;-49
2022/07/24 21:20:32;;;;;;;;;;;;;;;17.10;100.00;100542.53;3056044;19;872;-49
2022/07/24 21:21:38;;;;;;;;;;;;;;;17.11;100.00;100538.00;3057061;19;1035;-49
2022/07/24 21:22:40;;;;;;;;;;;;;;;17.09;100.00;100542.66;3057582;19;915;-49
2022/07/24 21:23:45;;;;;;;;;;;;;;;17.10;100.00;100547.06;3057193;19;1565;-50
2022/07/24 21:24:46;;;;;;;;;;;;;;;17.08;100.00;100547.22;3057528;19;892;-49
2022/07/24 21:25:51;;;;;;;;;;;;;;;17.09;100.00;100537.28;3056888;19;960;-49
2022/07/24 21:26:53;;;;;;;;;;;;;;;17.07;100.00;100540.09;3057565;19;853;-49
2022/07/24 21:27:57;;;;;;;;;;;;;;;17.08;100.00;100530.16;3056847;19;1724;-49
2022/07/24 21:28:59;;;;;;;;;;;;;;;17.06;100.00;100537.53;3057312;19;1182;-49
2022/07/24 21:30:05;;;;;;;;;;;;;;;17.05;100.00;100541.22;3057234;19;951;-49
2022/07/24 21:31:07;;;;;;;;;;;;;;;17.04;100.00;100537.66;3057175;19;959;-48
2022/07/24 21:32:12;;;;;;;;;;;;;;;17.04;100.00;100528.72;3056898;19;999;-49
2022/07/24 21:33:14;;;;;;;;;;;;;;;17.02;100.00;100541.50;3057667;19;873;-49
2022/07/24 21:34:18;;;;;;;;;;;;;;;16.95;100.00;100524.16;3056865;19;904;-49
2022/07/24 21:35:20;;;;;;;;;;;;;;;16.99;100.00;100536.38;3057414;19;920;-48
2022/07/24 21:36:25;;;;;;;;;;;;;;;16.97;100.00;100539.22;3057098;19;872;-49
2022/07/24 21:37:27;;;;;;;;;;;;;;;16.99;100.00;100536.38;3057368;19;1025;-49
2022/07/24 21:38:31;;;;;;;;;;;;;;;16.96;100.00;100526.72;3057149;19;1226;-49
2022/07/24 21:39:33;;;;;;;;;;;;;;;16.96;100.00;100533.94;3056659;19;1861;-50
2022/07/24 21:40:38;;;;;;;;;;;;;;;16.93;100.00;100538.59;3056941;19;1614;-49
2022/07/24 21:41:43;;;;;;;;;;;;;;;16.91;100.00;100535.19;3057224;19;873;-49
2022/07/24 21:42:44;;;;;;;;;;;;;;;16.90;100.00;100538.88;3057086;19;884;-49
2022/07/24 21:43:49;;;;;;;;;;;;;;;16.87;100.00;100541.84;3057172;19;1583;-49
2022/07/24 21:44:51;;;;;;;;;;;;;;;16.85;100.00;100529.50;3056907;19;1030;-48
2022/07/24 21:45:56;;;;;;;;;;;;;;;16.85;100.00;100530.34;3056754;19;1782;-48
2022/07/24 21:46:58;;;;;;;;;;;;;;;16.81;100.00;100533.44;3056948;19;967;-49
2022/07/24 21:48:02;;;;;;;;;;;;;;;16.79;100.00;100533.56;3055707;19;947;-48
2022/07/24 21:49:04;;;;;;;;;;;;;;;16.75;100.00;100534.84;3056907;19;841;-49
2022/07/24 21:50:10;;;;;;;;;;;;;;;16.76;100.00;100535.69;3057121;19;1019;-48
2022/07/24 21:51:14;;;;;;;;;;;;;;;16.73;100.00;100530.56;3057090;19;960;-48
2022/07/24 21:52:18;;;;;;;;;;;;;;;16.69;100.00;100535.34;3055917;19;920;-49
2022/07/24 21:53:20;;;;;;;;;;;;;;;16.67;100.00;100537.31;3056342;19;880;-49
2022/07/24 21:54:25;;;;;;;;;;;;;;;16.64;100.00;100536.75;3056869;19;1596;-49
2022/07/24 21:55:28;;;;;;;;;;;;;;;16.61;100.00;100531.59;3057016;19;914;-48
2022/07/24 21:56:32;;;;;;;;;;;;;;;16.58;100.00;100525.47;3056860;19;932;-49
2022/07/24 21:57:34;;;;;;;;;;;;;;;16.58;100.00;100535.38;3057224;19;911;-49
2022/07/24 21:58:38;;;;;;;;;;;;;;;16.54;100.00;100536.66;3056625;19;921;-48
2022/07/24 21:59:40;;;;;;;;;;;;;;;16.52;100.00;100531.41;3056544;19;1853;-48
2022/07/24 22:00:47;;;;;;;;;;;;;;;16.50;100.00;100527.97;3057091;19;833;-49
2022/07/24 22:01:49;;;;;;;;;;;;;;;16.48;100.00;100527.25;3056719;19;1211;-48
2022/07/24 22:02:54;;;;;;;;;;;;;;;16.46;100.00;100531.06;3056925;19;896;-49
2022/07/24 22:03:55;;;;;;;;;;;;;;;16.42;100.00;100525.06;3057122;19;943;-48
2022/07/24 22:05:00;;;;;;;;;;;;;;;16.40;100.00;100523.50;3056656;19;902;-49
2022/07/24 22:06:02;;;;;;;;;;;;;;;16.38;100.00;100520.09;3057081;19;932;-48
2022/07/24 22:07:06;;;;;;;;;;;;;;;16.37;100.00;100526.47;3056649;19;1012;-47
2022/07/24 22:08:08;;;;;;;;;;;;;;;16.34;100.00;100521.31;3057106;19;943;-49
2022/07/24 22:09:13;;;;;;;;;;;;;;;16.31;100.00;100519.72;3056595;19;916;-49
2022/07/24 22:10:17;;;;;;;;;;;;;;;16.29;100.00;100512.78;3057070;19;980;-49
2022/07/24 22:11:19;;;;;;;;;;;;;;;16.29;100.00;100520.88;3056508;19;1113;-49
2022/07/24 22:12:23;;;;;;;;;;;;;;;16.29;100.00;100520.88;3056534;19;1634;-48
2022/07/24 22:13:25;;;;;;;;;;;;;;;16.26;100.00;100513.91;3056441;19;1243;-48
2022/07/24 22:14:30;;;;;;;;;;;;;;;16.27;100.00;100523.69;3056621;19;936;-48
2022/07/24 22:15:32;;;;;;;;;;;;;;;16.26;100.00;100521.13;3056794;19;1044;-48
2022/07/24 22:16:36;;;;;;;;;;;;;;;16.24;100.00;100512.31;3056554;19;998;-49
2022/07/24 22:17:38;;;;;;;;;;;;;;;16.24;100.00;100512.31;3056484;19;1781;-48
2022/07/24 22:18:43;;;;;;;;;;;;;;;16.24;100.00;100520.41;3056632;19;995;-49
2022/07/24 22:19:44;;;;;;;;;;;;;;;16.23;100.00;100507.91;3055946;19;1847;-49
2022/07/24 22:20:49;;;;;;;;;;;;;;;16.21;100.00;100506.22;3056929;19;960;-48
2022/07/24 22:21:51;;;;;;;;;;;;;;;16.23;100.00;100506.09;3056491;19;984;-49
2022/07/24 22:22:55;;;;;;;;;;;;;;;16.23;100.00;100505.22;3056506;19;1055;-49
2022/07/24 22:23:57;;;;;;;;;;;;;;;16.20;100.00;100498.25;3056688;19;953;-49
2022/07/24 22:25:01;;;;;;;;;;;;;;;16.20;100.00;100503.63;3056767;19;884;-48